CSAPA LPCS-LPPT
Flight info
| Callsign | CSAPA |
|---|---|
| Flight time | 0h -8m |
| Altitude | 1500 |
| Route | LPCS DCT CARCA DCT ENACI DCT ODIVE DCT LPPT |
| Aircraft | C152/L-V/N |
Departure
| Time | 2026-04-20 14:35 |
|---|---|
| Airport | Cascais Airport (LPCS) |
Arrival
| Time | 2026-04-20 14:27 |
|---|---|
| Airport | Lisbon Humberto Delgado Airport (LPPT) |
| Time | Latitude | Longitude | Altitude | Speed | Heading |
|---|---|---|---|---|---|
| 2026-04-20 14:27 | 38.72566 | -9.35433 | 328 ft | 0 kts | 221° |
| 2026-04-20 14:28 | 38.72566 | -9.35434 | 328 ft | 0 kts | 221° |
| 2026-04-20 14:30 | 38.72565 | -9.35435 | 328 ft | 2 kts | 221° |
| 2026-04-20 14:30 | 38.72521 | -9.35434 | 328 ft | 10 kts | 163° |
| 2026-04-20 14:30 | 38.72449 | -9.35406 | 328 ft | 12 kts | 163° |
| 2026-04-20 14:30 | 38.72367 | -9.35376 | 328 ft | 10 kts | 163° |
| 2026-04-20 14:31 | 38.72329 | -9.35370 | 328 ft | 4 kts | 220° |
| 2026-04-20 14:31 | 38.72322 | -9.35396 | 328 ft | 5 kts | 253° |
| 2026-04-20 14:31 | 38.72322 | -9.35445 | 328 ft | 6 kts | 326° |
| 2026-04-20 14:31 | 38.72381 | -9.35471 | 328 ft | 11 kts | 343° |
| 2026-04-20 14:32 | 38.72462 | -9.35501 | 328 ft | 13 kts | 343° |
| 2026-04-20 14:32 | 38.72556 | -9.35537 | 328 ft | 15 kts | 343° |
| 2026-04-20 14:32 | 38.72659 | -9.35575 | 328 ft | 16 kts | 344° |
| 2026-04-20 14:32 | 38.72771 | -9.35617 | 328 ft | 17 kts | 343° |
| 2026-04-20 14:33 | 38.72889 | -9.35663 | 328 ft | 18 kts | 343° |
| 2026-04-20 14:33 | 38.72960 | -9.35714 | 328 ft | 4 kts | 321° |
| 2026-04-20 14:33 | 38.72967 | -9.35717 | 328 ft | 1 kts | 14° |
| 2026-04-20 14:33 | 38.72974 | -9.35704 | 328 ft | 4 kts | 100° |
| 2026-04-20 14:34 | 38.72911 | -9.35663 | 328 ft | 17 kts | 165° |
| 2026-04-20 14:34 | 38.72684 | -9.35578 | 329 ft | 58 kts | 164° |
| 2026-04-20 14:34 | 38.72199 | -9.35409 | 472 ft | 71 kts | 166° |
| 2026-04-20 14:34 | 38.71739 | -9.35296 | 735 ft | 68 kts | 172° |
| 2026-04-20 14:35 | 38.71218 | -9.35228 | 919 ft | 77 kts | 176° |
| 2026-04-20 14:35 | 38.70685 | -9.35161 | 1076 ft | 82 kts | 172° |
| 2026-04-20 14:35 | 38.70104 | -9.35054 | 1224 ft | 85 kts | 172° |
| 2026-04-20 14:35 | 38.69543 | -9.34851 | 1414 ft | 84 kts | 154° |
| 2026-04-20 14:36 | 38.69050 | -9.34403 | 1501 ft | 93 kts | 136° |
| 2026-04-20 14:36 | 38.68681 | -9.33695 | 1549 ft | 99 kts | 109° |
| 2026-04-20 14:36 | 38.68620 | -9.32782 | 1536 ft | 107 kts | 83° |
| 2026-04-20 14:36 | 38.68843 | -9.31870 | 1523 ft | 110 kts | 67° |
| 2026-04-20 14:37 | 38.69156 | -9.30966 | 1498 ft | 112 kts | 66° |
| 2026-04-20 14:37 | 38.69479 | -9.30062 | 1484 ft | 111 kts | 65° |
| 2026-04-20 14:37 | 38.69759 | -9.29132 | 1461 ft | 112 kts | 71° |
| 2026-04-20 14:37 | 38.69987 | -9.28191 | 1470 ft | 110 kts | 73° |
| 2026-04-20 14:38 | 38.70208 | -9.27238 | 1431 ft | 112 kts | 73° |
| 2026-04-20 14:38 | 38.70421 | -9.26277 | 1415 ft | 112 kts | 74° |
| 2026-04-20 14:38 | 38.70624 | -9.25331 | 1413 ft | 111 kts | 74° |
| 2026-04-20 14:38 | 38.70876 | -9.24381 | 1410 ft | 111 kts | 67° |
| 2026-04-20 14:39 | 38.71235 | -9.23539 | 1435 ft | 109 kts | 54° |
| 2026-04-20 14:39 | 38.71745 | -9.22810 | 1431 ft | 110 kts | 44° |
| 2026-04-20 14:39 | 38.72289 | -9.22131 | 1448 ft | 109 kts | 44° |
| 2026-04-20 14:39 | 38.72845 | -9.21458 | 1446 ft | 110 kts | 43° |
| 2026-04-20 14:40 | 38.73407 | -9.20793 | 1455 ft | 110 kts | 43° |
| 2026-04-20 14:40 | 38.73963 | -9.20120 | 1457 ft | 110 kts | 44° |
| 2026-04-20 14:40 | 38.74527 | -9.19456 | 1459 ft | 110 kts | 36° |
| 2026-04-20 14:40 | 38.75218 | -9.19039 | 1449 ft | 111 kts | 15° |
| 2026-04-20 14:41 | 38.75976 | -9.18880 | 1454 ft | 110 kts | 12° |
| 2026-04-20 14:41 | 38.76720 | -9.18616 | 1445 ft | 111 kts | 16° |
| 2026-04-20 14:41 | 38.77459 | -9.18335 | 1446 ft | 111 kts | 17° |
| 2026-04-20 14:41 | 38.78199 | -9.18046 | 1438 ft | 111 kts | 17° |
| 2026-04-20 14:42 | 38.78934 | -9.17745 | 1449 ft | 110 kts | 18° |
| 2026-04-20 14:42 | 38.79659 | -9.17440 | 1461 ft | 110 kts | 18° |
| 2026-04-20 14:42 | 38.80385 | -9.17135 | 1475 ft | 109 kts | 17° |
| 2026-04-20 14:42 | 38.81138 | -9.17153 | 1462 ft | 111 kts | 340° |
| 2026-04-20 14:43 | 38.81726 | -9.17739 | 1524 ft | 106 kts | 304° |
| 2026-04-20 14:43 | 38.81910 | -9.18637 | 1530 ft | 108 kts | 267° |
| 2026-04-20 14:43 | 38.81663 | -9.19546 | 1535 ft | 109 kts | 236° |
| 2026-04-20 14:43 | 38.81065 | -9.20142 | 1537 ft | 110 kts | 200° |
| 2026-04-20 14:44 | 38.80317 | -9.20158 | 1532 ft | 110 kts | 162° |
| 2026-04-20 14:44 | 38.79735 | -9.19547 | 1517 ft | 111 kts | 119° |
| 2026-04-20 14:44 | 38.79645 | -9.18592 | 1531 ft | 110 kts | 75° |
| 2026-04-20 14:44 | 38.80079 | -9.17804 | 1521 ft | 111 kts | 36° |
| 2026-04-20 14:45 | 38.80799 | -9.17541 | 1551 ft | 109 kts | 357° |
| 2026-04-20 14:45 | 38.81469 | -9.17908 | 1598 ft | 107 kts | 317° |
| 2026-04-20 14:45 | 38.81744 | -9.18782 | 1597 ft | 109 kts | 269° |
| 2026-04-20 14:45 | 38.81463 | -9.19678 | 1563 ft | 112 kts | 229° |
| 2026-04-20 14:46 | 38.80789 | -9.20168 | 1511 ft | 114 kts | 192° |
| 2026-04-20 14:46 | 38.80022 | -9.20021 | 1490 ft | 113 kts | 151° |
| 2026-04-20 14:46 | 38.79541 | -9.19259 | 1485 ft | 112 kts | 109° |
| 2026-04-20 14:46 | 38.79543 | -9.18289 | 1497 ft | 111 kts | 72° |
| 2026-04-20 14:47 | 38.79985 | -9.17500 | 1489 ft | 111 kts | 37° |
| 2026-04-20 14:47 | 38.80673 | -9.17041 | 1491 ft | 110 kts | 24° |
| 2026-04-20 14:47 | 38.81376 | -9.16672 | 1519 ft | 109 kts | 21° |
| 2026-04-20 14:48 | 38.82809 | -9.15968 | 1524 ft | 110 kts | 23° |
| 2026-04-20 14:48 | 38.83441 | -9.15449 | 1455 ft | 110 kts | 43° |
| 2026-04-20 14:48 | 38.83807 | -9.14626 | 1391 ft | 106 kts | 81° |
| 2026-04-20 14:48 | 38.83609 | -9.13744 | 1273 ft | 106 kts | 121° |
| 2026-04-20 14:49 | 38.83205 | -9.12932 | 1132 ft | 105 kts | 123° |
| 2026-04-20 14:49 | 38.82748 | -9.12274 | 1038 ft | 96 kts | 147° |
| 2026-04-20 14:49 | 38.82105 | -9.12006 | 825 ft | 98 kts | 171° |
| 2026-04-20 14:49 | 38.81450 | -9.11951 | 701 ft | 91 kts | 182° |
| 2026-04-20 14:50 | 38.80835 | -9.12113 | 595 ft | 90 kts | 201° |
| 2026-04-20 14:50 | 38.80250 | -9.12455 | 526 ft | 92 kts | 205° |
| 2026-04-20 14:50 | 38.79656 | -9.12777 | 472 ft | 94 kts | 202° |
| 2026-04-20 14:50 | 38.79062 | -9.13091 | 412 ft | 89 kts | 201° |
| 2026-04-20 14:51 | 38.78521 | -9.13379 | 395 ft | 81 kts | 203° |
| 2026-04-20 14:51 | 38.78015 | -9.13651 | 383 ft | 71 kts | 202° |
| 2026-04-20 14:51 | 38.77630 | -9.13855 | 378 ft | 45 kts | 204° |
| 2026-04-20 14:51 | 38.77513 | -9.13913 | 377 ft | 8 kts | 184° |
| 2026-04-20 14:52 | 38.77425 | -9.13909 | 377 ft | 10 kts | 176° |
| 2026-04-20 14:52 | 38.77371 | -9.13904 | 377 ft | 8 kts | 176° |
| 2026-04-20 14:52 | 38.77320 | -9.13899 | 377 ft | 5 kts | 169° |
| 2026-04-20 14:52 | 38.77286 | -9.13880 | 377 ft | 5 kts | 146° |
| 2026-04-20 14:53 | 38.77285 | -9.13856 | 377 ft | 2 kts | 70° |
| 2026-04-20 14:53 | 38.77290 | -9.13837 | 377 ft | 0 kts | 72° |
| 2026-04-20 14:53 | 38.77290 | -9.13836 | 377 ft | 1 kts | 72° |
| 2026-04-20 14:53 | 38.77288 | -9.13778 | 377 ft | 10 kts | 110° |
| 2026-04-20 14:54 | 38.77267 | -9.13687 | 377 ft | 8 kts | 83° |
| 2026-04-20 14:54 | 38.77274 | -9.13638 | 377 ft | 6 kts | 80° |
| 2026-04-20 14:54 | 38.77283 | -9.13569 | 377 ft | 10 kts | 80° |
| 2026-04-20 14:54 | 38.77297 | -9.13475 | 377 ft | 11 kts | 79° |
| 2026-04-20 14:55 | 38.77300 | -9.13451 | 377 ft | 0 kts | 79° |
| 2026-04-20 14:56 | 38.77308 | -9.13403 | 377 ft | 10 kts | 76° |
| 2026-04-20 14:57 | 38.77363 | -9.13385 | 377 ft | 11 kts | 348° |
| 2026-04-20 14:57 | 38.77455 | -9.13410 | 377 ft | 15 kts | 347° |
| 2026-04-20 14:57 | 38.77559 | -9.13439 | 377 ft | 16 kts | 353° |
| 2026-04-20 14:57 | 38.77624 | -9.13398 | 377 ft | 7 kts | 37° |
| 2026-04-20 14:58 | 38.77644 | -9.13378 | 377 ft | 1 kts | 35° |
| 2026-04-20 14:58 | 38.77651 | -9.13373 | 377 ft | 4 kts | 30° |
| 2026-04-20 14:58 | 38.77698 | -9.13338 | 377 ft | 11 kts | 30° |
| 2026-04-20 14:58 | 38.77726 | -9.13284 | 377 ft | 4 kts | 80° |
| 2026-04-20 14:59 | 38.77732 | -9.13245 | 377 ft | 5 kts | 78° |
| 2026-04-20 14:59 | 38.77745 | -9.13209 | 377 ft | 1 kts | 356° |
| 2026-04-20 14:59 | 38.77764 | -9.13214 | 377 ft | 6 kts | 348° |
| 2026-04-20 14:59 | 38.77830 | -9.13232 | 377 ft | 12 kts | 348° |
| 2026-04-20 15:00 | 38.77858 | -9.13219 | 377 ft | 4 kts | 94° |
| 2026-04-20 15:00 | 38.77851 | -9.13155 | 377 ft | 6 kts | 103° |
| 2026-04-20 15:00 | 38.77850 | -9.13137 | 377 ft | 0 kts | 79° |
| 2026-04-20 15:01 | 38.77850 | -9.13136 | 377 ft | 0 kts | 79° |